WMKPNZWD

Guest
Details From WMKP - Penang Intl
To NZWD - MCMURDO STATION
Flight Number -
Tags decoded
Created
Modified
Stats Distance 6,254 nm / 11,583 km
Max Altitude 0 ft / 0 m
Waypoints 5
Social Downloads 0
Likes 0
Share VATSIM

Download

Looking for another format? Having issues loading an existing format? Contact us
Advertisement - Login to hide

Notes

Requested: WMKP VAMPI GIVAL IGREX VOPB NZWD

Route

WMKP VAMPI GIVAL IGREX NZWD

ID Type Via Altitude Latitude Longitude Leg Dist Tot Dist Heading (true) Name
O WMKP APT - 0 ft / 0 m 5.29714˚ 100.27686˚ - 0 nm - Penang Intl
VAMPI FIX - 0 ft / 0 m 6.18222˚ 97.58556˚ 169 nm 169 nm 288° / 288° -
GIVAL FIX - 0 ft / 0 m 7.00000˚ 98.00000˚ 54 nm 224 nm 27° / 27° -
IGREX FIX - 0 ft / 0 m 9.72444˚ 94.41667˚ 268 nm 492 nm 308° / 307° -
O NZWD APT - 0 ft / 0 m -77.86736˚ 167.05657˚ 5761 nm 6254 nm 168° / 109° MCMURDO STATION

Altitude Profile

Advertisement - Login to hide

Weather


0- 5 10 15 20 25 30 35+ Temperature / ° C

Clouds and Precipitation
Forecast for 2017-12-16 18:00 UTC. Updated 2 hours ago

Ground ~20,000 ft ~40,000 ft Winds

WMKP

Details ICAO WMKP (PEN)
Name Penang Intl
Region Malaysia (Peninsular Malaysia)
Timezone Asia/Kuala_Lumpur (UTC+8.0)
Stats Elevation 11 ft / 3 m (AMSL)
Location 5.297141° 100.276865°
Runways 1
Magnetic Variation 0.206° W

METAR

WMKP 161830Z 02007KT 340V050 8000 FEW025 SCT140 BKN270 27/23 Q1011 NOSIG

Decode

TAF

TAF WMKP 161700Z 1618/1718 05005KT 9000 FEW025 SCT140 BKN270

Decode

Departure Runways

ID Width Length Bearing (true) Bearing (mag) Surface Threshold Offset Overrun Length
04 150 ft / 46 m 11,042 ft / 3,366 m 42.02° 42.23° Asphalt 0 ft / 0 m 205 ft / 62 m
22 150 ft / 46 m 11,042 ft / 3,366 m 222.02° 222.23° Asphalt 0 ft / 0 m 205 ft / 62 m

NZWD

Details ICAO NZWD
Name MCMURDO STATION
Region New Zealand and Antarctica
Timezone uninhabited (UTC+0.0)
Stats Elevation 68 ft / 21 m (AMSL)
Location -77.867358° 167.056572°
Runways 2
Magnetic Variation 141.335° E

METAR

NZWD 161855Z 06003KT 9999 VCFG FEW010 FEW100 SCT180 M09/M11 A2927 RMK SLP911 VCFG GRID W-N AND E-SE GRID23003KT SDG/HDG

Decode

TAF

TAF TAF AMD NZWD 1616/1715 VRB06KT 9999 VCFG FEW010 FEW090 SCT140 QNH2922INS TEMPO 1616/1621 0800 FZFG VV005 BECMG 1619/1621 VRB06KT 9999 NSW FEW010 FEW090 FEW140 QNH2909INS BECMG 1708/1710 VRB06KT 9999 VCFG FEW010 FEW090 FEW140 QNH2907INS BECMG 1712/1714 VRB06KT 0800 FZFG VV005 QNH2908INS AMD 161630

Decode

Destination Runways

ID Width Length Bearing (true) Bearing (mag) Surface Threshold Offset Overrun Length
07 220 ft / 67 m 10,009 ft / 3,051 m 213.46° 72.13° Snow or ice 0 ft / 0 m 0 ft / 0 m
15 220 ft / 67 m 10,009 ft / 3,051 m 293.44° 152.11° Snow or ice 0 ft / 0 m 0 ft / 0 m
25 220 ft / 67 m 10,009 ft / 3,051 m 33.54° 252.21° Snow or ice 0 ft / 0 m 0 ft / 0 m
33 220 ft / 67 m 10,009 ft / 3,051 m 113.56° 332.23° Snow or ice 0 ft / 0 m 0 ft / 0 m